createdAt,value
2023-04-18T00:00:35.947Z,8.2008
2023-04-18T00:01:38.274Z,8.1645
2023-04-18T00:02:40.752Z,7.5624
2023-04-18T00:03:43.223Z,8.0085
2023-04-18T00:04:45.544Z,7.5910
2023-04-18T00:05:47.580Z,7.7144
2023-04-18T00:06:49.922Z,7.6305
2023-04-18T00:07:52.249Z,8.0587
2023-04-18T00:08:54.615Z,8.4614
2023-04-18T00:09:56.926Z,8.2204
2023-04-18T00:10:59.243Z,7.4421
2023-04-18T00:12:01.593Z,7.5439
2023-04-18T00:13:03.933Z,7.8342
2023-04-18T00:14:06.252Z,7.8506
2023-04-18T00:15:08.588Z,7.3660
2023-04-18T00:16:10.958Z,7.8574
2023-04-18T00:17:13.313Z,8.1187
2023-04-18T00:18:15.599Z,8.0386
2023-04-18T00:19:17.924Z,8.3529
2023-04-18T00:20:20.257Z,7.4799
2023-04-18T00:21:22.679Z,7.7747
2023-04-18T00:22:24.931Z,7.8333
2023-04-18T00:23:27.284Z,8.6086
2023-04-18T00:24:29.593Z,8.5218
2023-04-18T00:25:31.928Z,7.6642
2023-04-18T00:26:34.260Z,7.2259
2023-04-18T00:27:36.599Z,7.7648
2023-04-18T00:28:38.937Z,7.9918
2023-04-18T00:29:41.269Z,7.9075
2023-04-18T00:30:43.643Z,8.0162
2023-04-18T00:31:45.995Z,8.0983
2023-04-18T00:32:48.323Z,7.9725
2023-04-18T00:33:50.666Z,7.9618
2023-04-18T00:34:52.953Z,8.4802
2023-04-18T00:35:55.281Z,8.1453
2023-04-18T00:36:57.624Z,8.1162
2023-04-18T00:37:59.952Z,7.9216
2023-04-18T00:39:02.338Z,8.7728
2023-04-18T00:40:04.625Z,8.4199
2023-04-18T00:41:06.960Z,7.9602
2023-04-18T00:42:09.298Z,7.8038
2023-04-18T00:43:11.624Z,8.0936
2023-04-18T00:44:14.226Z,8.4959
2023-04-18T00:45:16.290Z,8.7875
2023-04-18T00:46:18.672Z,8.5079
2023-04-18T00:47:20.981Z,7.9267
2023-04-18T00:48:23.303Z,8.0225
2023-04-18T00:49:25.647Z,7.9735
2023-04-18T00:50:27.981Z,7.5857
2023-04-18T00:51:30.295Z,7.9408
2023-04-18T00:52:32.629Z,8.3397
2023-04-18T00:53:34.962Z,9.0331
2023-04-18T00:54:37.310Z,8.1419
2023-04-18T00:55:39.641Z,7.6604
2023-04-18T00:56:41.977Z,8.4615
2023-04-18T00:57:44.310Z,7.9284
2023-04-18T00:58:46.646Z,7.7956
2023-04-18T00:59:49.002Z,8.0349
2023-04-18T01:00:51.315Z,8.2842
2023-04-18T01:01:53.833Z,7.8482
2023-04-18T01:02:56.174Z,7.9374
2023-04-18T01:03:58.409Z,8.1451
2023-04-18T01:05:00.732Z,7.8197
2023-04-18T01:06:03.021Z,7.6721
2023-04-18T01:07:05.341Z,8.6392
2023-04-18T01:08:07.672Z,8.0285
2023-04-18T01:09:10.006Z,8.2284
2023-04-18T01:10:12.355Z,8.7735
2023-04-18T01:11:14.686Z,7.9737
2023-04-18T01:12:17.031Z,8.3242
2023-04-18T01:13:19.347Z,8.8388
2023-04-18T01:14:21.680Z,8.6823
2023-04-18T01:15:24.085Z,8.8883
2023-04-18T01:16:26.441Z,8.9642
2023-04-18T01:17:28.724Z,8.1836
2023-04-18T01:18:31.010Z,8.1711
2023-04-18T01:19:33.341Z,8.9902
2023-04-18T01:20:35.681Z,8.5106
2023-04-18T01:21:37.996Z,7.9614
2023-04-18T01:22:40.374Z,7.7421
2023-04-18T01:23:42.670Z,8.1277
2023-04-18T01:24:45.007Z,7.8659
2023-04-18T01:25:47.373Z,8.3488
2023-04-18T01:26:49.670Z,8.4968
2023-04-18T01:27:52.027Z,7.8559
2023-04-18T01:28:54.344Z,8.4418
2023-04-18T01:29:56.684Z,8.2371
2023-04-18T01:30:59.049Z,7.8932
2023-04-18T01:32:01.400Z,8.0712
2023-04-18T01:33:03.739Z,8.7021
2023-04-18T01:34:06.043Z,8.5343
2023-04-18T01:35:08.376Z,8.3214
2023-04-18T01:36:10.707Z,8.5850
2023-04-18T01:37:13.034Z,8.4638
2023-04-18T01:38:15.384Z,8.4913
2023-04-18T01:39:17.706Z,7.8801
2023-04-18T01:40:20.043Z,7.8755
2023-04-18T01:41:22.376Z,8.2456
2023-04-18T01:42:24.717Z,8.4047
2023-04-18T01:43:27.211Z,8.6987
2023-04-18T01:44:29.440Z,8.3358
2023-04-18T01:45:31.721Z,9.3356
2023-04-18T01:46:34.054Z,8.8242
2023-04-18T01:47:36.407Z,8.9792
2023-04-18T01:48:38.709Z,8.6406
2023-04-18T01:49:41.060Z,8.3754
2023-04-18T01:50:43.403Z,8.2658
2023-04-18T01:51:45.735Z,8.8590
2023-04-18T01:52:48.052Z,8.4036
2023-04-18T01:53:50.382Z,8.7898
2023-04-18T01:54:52.728Z,8.6356
2023-04-18T01:55:55.062Z,8.0768
2023-04-18T01:56:57.413Z,9.0324
2023-04-18T01:57:59.734Z,9.3228
2023-04-18T01:59:02.073Z,9.4924
2023-04-18T02:00:04.436Z,9.1866
2023-04-18T02:01:06.773Z,9.4994
2023-04-18T02:02:09.168Z,9.5146
2023-04-18T02:03:11.511Z,9.1664
2023-04-18T02:04:14.124Z,9.1356
2023-04-18T02:05:16.084Z,9.1923
2023-04-18T02:06:18.404Z,9.0682
2023-04-18T02:07:20.780Z,9.4882
2023-04-18T02:08:23.065Z,9.4206
2023-04-18T02:09:25.409Z,9.8628
2023-04-18T02:10:27.735Z,9.4398
2023-04-18T02:11:30.077Z,9.2337
2023-04-18T02:12:32.424Z,9.8683
2023-04-18T02:13:34.750Z,8.8309
2023-04-18T02:14:37.109Z,8.4649
2023-04-18T02:15:39.417Z,8.8706
2023-04-18T02:16:41.782Z,9.4159
2023-04-18T02:17:44.188Z,9.4780
2023-04-18T02:18:46.422Z,9.6663
2023-04-18T02:19:48.756Z,9.3033
2023-04-18T02:20:51.097Z,9.2267
2023-04-18T02:21:53.424Z,8.2958
2023-04-18T02:22:55.770Z,8.5819
2023-04-18T02:23:58.095Z,8.4345
2023-04-18T02:25:00.439Z,8.6121
2023-04-18T02:26:02.808Z,8.7002
2023-04-18T02:27:05.101Z,9.2923
2023-04-18T02:28:07.436Z,9.1027
2023-04-18T02:29:09.779Z,9.0415
2023-04-18T02:30:12.106Z,9.3755
2023-04-18T02:31:14.560Z,8.8811
2023-04-18T02:32:16.778Z,9.1446
2023-04-18T02:33:19.123Z,9.2993
2023-04-18T02:34:21.431Z,8.9488
2023-04-18T02:35:23.765Z,8.9873
2023-04-18T02:36:26.121Z,8.7164
2023-04-18T02:37:28.437Z,8.6967
2023-04-18T02:38:30.792Z,9.0395
2023-04-18T02:39:33.113Z,8.7888
2023-04-18T02:40:35.450Z,8.3653
2023-04-18T02:41:37.787Z,8.5689
2023-04-18T02:42:40.116Z,8.8430
2023-04-18T02:43:42.500Z,8.7211
2023-04-18T02:44:44.799Z,9.2286
2023-04-18T02:45:47.142Z,9.6442
2023-04-18T02:46:49.471Z,9.2062
2023-04-18T02:47:56.027Z,10.1363
2023-04-18T02:48:54.147Z,9.9699
2023-04-18T02:49:56.486Z,9.7850
2023-04-18T02:50:58.826Z,9.3719
2023-04-18T02:52:01.258Z,9.1109
2023-04-18T02:53:03.508Z,8.9154
2023-04-18T02:54:05.833Z,8.7736
2023-04-18T02:55:08.163Z,9.8311
2023-04-18T02:56:10.499Z,9.2477
2023-04-18T02:57:12.841Z,9.2054
2023-04-18T02:58:15.191Z,9.4677
2023-04-18T02:59:17.506Z,9.3822
2023-04-18T03:00:19.845Z,8.6192
2023-04-18T03:01:22.213Z,9.1210
2023-04-18T03:02:24.560Z,9.4469
2023-04-18T03:03:26.921Z,9.9408
2023-04-18T03:04:29.224Z,9.1590
2023-04-18T03:05:31.528Z,9.3699
2023-04-18T03:06:33.869Z,8.6049
2023-04-18T03:07:36.265Z,8.6519
2023-04-18T03:08:38.553Z,8.6702
2023-04-18T03:09:40.884Z,8.7488
2023-04-18T03:10:43.207Z,9.5876
2023-04-18T03:11:45.558Z,9.7950
2023-04-18T03:12:47.887Z,9.3315
2023-04-18T03:13:50.238Z,9.8012
2023-04-18T03:14:52.565Z,8.9476
2023-04-18T03:15:54.896Z,9.4341
2023-04-18T03:16:57.239Z,9.2435
2023-04-18T03:17:59.616Z,9.1522
2023-04-18T03:19:01.915Z,9.2073
2023-04-18T03:20:04.236Z,10.1460
2023-04-18T03:21:06.570Z,9.8508
2023-04-18T03:22:08.906Z,9.6936
2023-04-18T03:23:11.242Z,9.2991
2023-04-18T03:24:13.768Z,9.5493
2023-04-18T03:25:15.913Z,9.7927
2023-04-18T03:26:18.247Z,9.6886
2023-04-18T03:27:20.586Z,9.4217
2023-04-18T03:28:22.928Z,9.3330
2023-04-18T03:29:25.275Z,9.6114
2023-04-18T03:30:27.611Z,9.2780
2023-04-18T03:31:29.978Z,8.3710
2023-04-18T03:32:32.312Z,8.7405
2023-04-18T03:33:34.645Z,8.7041
2023-04-18T03:34:36.975Z,9.3944
2023-04-18T03:35:39.314Z,8.4188
2023-04-18T03:36:41.684Z,8.9010
2023-04-18T03:37:44.008Z,9.0727
2023-04-18T03:38:46.338Z,8.4639
2023-04-18T03:39:48.683Z,8.5142
2023-04-18T03:40:51.006Z,9.7057
2023-04-18T03:41:53.357Z,10.0324
2023-04-18T03:42:55.679Z,9.6060
2023-04-18T03:43:58.025Z,9.1402
2023-04-18T03:45:00.371Z,8.7265
2023-04-18T03:46:02.811Z,9.3052
2023-04-18T03:47:05.125Z,9.8468
2023-04-18T03:48:07.448Z,9.0331
2023-04-18T03:49:09.797Z,9.3797
2023-04-18T03:50:12.154Z,9.7880
2023-04-18T03:51:14.473Z,8.8276
2023-04-18T03:52:16.801Z,9.2588
2023-04-18T03:53:19.137Z,9.2595
2023-04-18T03:54:21.503Z,9.7632
2023-04-18T03:55:23.827Z,10.1384
2023-04-18T03:56:26.160Z,9.5641
2023-04-18T03:57:28.500Z,9.3555
2023-04-18T03:58:30.840Z,9.4080
2023-04-18T03:59:33.177Z,9.4252
2023-04-18T04:00:35.538Z,10.2026
2023-04-18T04:01:37.865Z,9.3708
2023-04-18T04:02:40.402Z,9.3520
2023-04-18T04:03:42.756Z,9.9145
2023-04-18T04:04:44.954Z,9.8026
2023-04-18T04:05:47.243Z,10.2037
2023-04-18T04:06:49.554Z,9.6152
2023-04-18T04:07:51.900Z,9.6998
2023-04-18T04:08:54.236Z,9.9445
2023-04-18T04:09:56.595Z,9.3968
2023-04-18T04:10:59.032Z,9.2347
2023-04-18T04:12:01.270Z,9.0152
2023-04-18T04:13:03.602Z,9.6479
2023-04-18T04:14:05.943Z,10.0134
2023-04-18T04:15:08.297Z,10.3915
2023-04-18T04:16:10.668Z,9.9707
2023-04-18T04:17:12.990Z,10.6238
2023-04-18T04:18:15.333Z,10.5865
2023-04-18T04:19:17.658Z,11.3154
2023-04-18T04:20:20.005Z,12.1495
2023-04-18T04:21:22.335Z,12.3587
2023-04-18T04:22:24.669Z,11.9465
2023-04-18T04:23:27.000Z,11.5237
2023-04-18T04:24:29.459Z,11.4103
2023-04-18T04:25:31.677Z,11.3572
2023-04-18T04:26:34.024Z,11.5343
2023-04-18T04:27:36.344Z,10.2811
2023-04-18T04:28:38.688Z,11.0533
2023-04-18T04:29:41.029Z,10.9566
2023-04-18T04:30:43.424Z,11.2138
2023-04-18T04:31:45.708Z,11.2098
2023-04-18T04:32:48.114Z,11.4868
2023-04-18T04:33:50.372Z,11.5450
2023-04-18T04:34:52.722Z,11.0547
2023-04-18T04:35:55.118Z,11.4599
2023-04-18T04:36:57.454Z,11.2114
2023-04-18T04:37:59.735Z,11.6386
2023-04-18T04:39:02.973Z,11.1363
2023-04-18T04:40:04.607Z,11.1722
2023-04-18T04:41:06.759Z,11.5088
2023-04-18T04:42:09.081Z,11.8996
2023-04-18T04:43:11.419Z,11.9063
2023-04-18T04:44:13.999Z,12.6639
2023-04-18T04:45:16.144Z,11.6165
2023-04-18T04:46:18.537Z,12.5224
2023-04-18T04:47:20.767Z,12.4102
2023-04-18T04:48:23.104Z,12.1557
2023-04-18T04:49:25.452Z,12.2135
2023-04-18T04:50:27.782Z,12.7662
2023-04-18T04:51:30.116Z,12.5003
2023-04-18T04:52:32.459Z,12.1431
2023-04-18T04:53:34.799Z,11.7095
2023-04-18T04:54:37.200Z,12.4592
2023-04-18T04:55:39.481Z,12.1405
2023-04-18T04:56:41.836Z,12.4190
2023-04-18T04:57:44.160Z,12.8938
2023-04-18T04:58:46.495Z,12.1857
2023-04-18T04:59:48.849Z,12.0110
2023-04-18T05:00:51.378Z,11.8420
2023-04-18T05:01:53.641Z,11.5150
2023-04-18T05:02:55.991Z,11.6431
2023-04-18T05:03:58.316Z,12.2927
2023-04-18T05:05:00.564Z,11.5343
2023-04-18T05:06:03.453Z,12.1115
2023-04-18T05:07:05.215Z,11.5288
2023-04-18T05:08:07.550Z,11.0289
2023-04-18T05:09:09.895Z,12.4276
2023-04-18T05:10:12.251Z,11.5070
2023-04-18T05:11:14.589Z,11.4874
2023-04-18T05:12:17.028Z,11.3050
2023-04-18T05:13:19.901Z,10.3208
2023-04-18T05:14:21.595Z,10.5676
2023-04-18T05:15:23.929Z,12.4860
2023-04-18T05:16:26.300Z,12.4893
2023-04-18T05:17:28.665Z,12.4044
2023-04-18T05:18:32.551Z,12.0633
2023-04-18T05:19:33.285Z,11.5599
2023-04-18T05:20:35.622Z,12.2204
2023-04-18T05:21:37.962Z,11.8605
2023-04-18T05:22:40.303Z,12.2574
2023-04-18T05:23:42.641Z,12.3340
2023-04-18T05:24:44.987Z,12.7221
2023-04-18T05:25:47.326Z,12.4325
2023-04-18T05:26:49.686Z,12.8157
2023-04-18T05:27:52.038Z,12.7933
2023-04-18T05:28:54.358Z,12.2973
2023-04-18T05:29:56.689Z,12.5248
2023-04-18T05:30:59.063Z,13.3572
2023-04-18T05:32:01.401Z,12.8212
2023-04-18T05:33:03.724Z,12.9861
2023-04-18T05:34:06.027Z,13.0956
2023-04-18T05:35:08.359Z,12.9350
2023-04-18T05:36:10.696Z,12.6999
2023-04-18T05:37:13.057Z,12.4549
2023-04-18T05:38:15.374Z,12.1786
2023-04-18T05:39:17.719Z,13.2381
2023-04-18T05:40:20.057Z,12.5718
2023-04-18T05:41:22.400Z,12.1098
2023-04-18T05:42:24.749Z,13.3922
2023-04-18T05:43:27.085Z,12.7003
2023-04-18T05:44:29.410Z,12.9492
2023-04-18T05:45:31.753Z,12.5048
2023-04-18T05:46:34.136Z,12.6457
2023-04-18T05:47:36.462Z,12.6349
2023-04-18T05:48:38.770Z,12.4120
2023-04-18T05:49:41.103Z,12.3592
2023-04-18T05:50:43.448Z,12.4311
2023-04-18T05:51:45.780Z,12.8872
2023-04-18T05:52:48.133Z,12.8692
2023-04-18T05:53:50.453Z,12.7830
2023-04-18T05:54:52.800Z,12.5662
2023-04-18T05:55:55.158Z,11.8819
2023-04-18T05:56:57.472Z,11.9858
2023-04-18T05:57:59.805Z,13.1041
2023-04-18T05:59:02.345Z,12.8511
2023-04-18T06:00:04.508Z,12.3298
2023-04-18T06:01:06.833Z,12.9504
2023-04-18T06:02:09.233Z,12.4213
2023-04-18T06:03:11.829Z,12.4904
2023-04-18T06:04:14.351Z,12.2907
2023-04-18T06:05:16.367Z,13.1321
2023-04-18T06:06:18.518Z,13.4585
2023-04-18T06:07:20.854Z,12.4563
2023-04-18T06:08:23.187Z,11.4131
2023-04-18T06:09:25.534Z,12.0428
2023-04-18T06:10:27.884Z,11.7822
2023-04-18T06:11:30.215Z,11.7171
2023-04-18T06:12:32.543Z,12.0362
2023-04-18T06:13:34.890Z,12.0993
2023-04-18T06:14:37.254Z,12.2660
2023-04-18T06:15:39.571Z,12.3426
2023-04-18T06:16:41.950Z,12.7118
2023-04-18T06:17:44.283Z,11.7580
2023-04-18T06:18:46.567Z,12.0009
2023-04-18T06:19:48.932Z,12.2927
2023-04-18T06:20:51.257Z,12.4796
2023-04-18T06:21:53.604Z,12.7633
2023-04-18T06:22:55.928Z,12.1958
2023-04-18T06:23:58.277Z,12.5619
2023-04-18T06:25:00.612Z,10.9925
2023-04-18T06:26:02.971Z,12.8015
2023-04-18T06:27:05.295Z,13.4505
2023-04-18T06:28:07.644Z,13.3914
2023-04-18T06:29:09.965Z,12.2246
2023-04-18T06:30:12.300Z,12.9821
2023-04-18T06:31:14.688Z,13.7149
2023-04-18T06:32:16.981Z,13.7623
2023-04-18T06:33:19.334Z,14.2166
2023-04-18T06:34:21.664Z,13.1137
2023-04-18T06:35:26.361Z,13.5229
2023-04-18T06:36:26.357Z,13.1267
2023-04-18T06:37:28.689Z,13.6626
2023-04-18T06:38:31.028Z,13.2612
2023-04-18T06:39:33.364Z,13.4546
2023-04-18T06:40:35.752Z,13.6755
2023-04-18T06:41:38.047Z,14.2231
2023-04-18T06:42:40.390Z,14.3561
2023-04-18T06:43:52.064Z,13.5316
2023-04-18T06:44:45.074Z,13.8433
2023-04-18T06:45:47.539Z,14.8501
2023-04-18T06:46:49.748Z,14.9618
2023-04-18T06:47:52.091Z,13.9986
2023-04-18T06:48:54.415Z,14.0056
2023-04-18T06:49:56.750Z,14.3748
2023-04-18T06:50:59.089Z,14.3122
2023-04-18T06:52:01.424Z,13.9714
2023-04-18T06:53:03.761Z,14.0637
2023-04-18T06:54:06.095Z,14.9173
2023-04-18T06:55:08.432Z,14.9591
2023-04-18T06:56:10.766Z,14.6089
2023-04-18T06:57:13.105Z,14.9358
2023-04-18T06:58:15.438Z,14.9385
2023-04-18T06:59:17.772Z,14.8876
2023-04-18T07:00:20.107Z,14.5046
2023-04-18T07:01:22.606Z,14.2248
2023-04-18T07:02:24.922Z,14.7908
2023-04-18T07:03:27.316Z,14.6566
2023-04-18T07:04:29.524Z,14.3831
2023-04-18T07:05:31.796Z,14.6126
2023-04-18T07:06:34.140Z,15.3684
2023-04-18T07:07:36.485Z,14.5241
2023-04-18T07:08:38.805Z,13.8615
2023-04-18T07:09:41.188Z,13.9102
2023-04-18T07:10:43.487Z,14.3378
2023-04-18T07:11:45.847Z,14.6140
2023-04-18T07:12:48.160Z,14.0116
2023-04-18T07:13:50.494Z,14.7173
2023-04-18T07:14:52.826Z,13.7363
2023-04-18T07:15:55.164Z,14.8865
2023-04-18T07:16:57.667Z,14.3912
2023-04-18T07:17:59.895Z,14.0271
2023-04-18T07:19:02.192Z,14.6004
2023-04-18T07:20:04.519Z,14.8838
2023-04-18T07:21:06.852Z,14.2806
2023-04-18T07:22:09.189Z,14.9249
2023-04-18T07:23:11.524Z,15.5588
2023-04-18T07:24:14.273Z,14.3113
2023-04-18T07:25:16.220Z,13.9177
2023-04-18T07:26:18.546Z,14.4407
2023-04-18T07:27:20.880Z,14.3983
2023-04-18T07:28:23.235Z,14.7830
2023-04-18T07:29:25.564Z,14.2547
2023-04-18T07:30:27.960Z,14.7951
2023-04-18T07:31:30.357Z,14.7725
2023-04-18T07:32:32.640Z,15.3658
2023-04-18T07:33:34.929Z,14.4873
2023-04-18T07:34:37.272Z,14.4845
2023-04-18T07:35:39.592Z,15.4310
2023-04-18T07:36:41.926Z,14.7226
2023-04-18T07:37:44.269Z,14.5757
2023-04-18T07:38:46.608Z,13.5752
2023-04-18T07:39:48.948Z,14.3748
2023-04-18T07:40:51.279Z,14.3092
2023-04-18T07:41:53.618Z,13.9318
2023-04-18T07:42:55.955Z,14.6772
2023-04-18T07:43:58.303Z,15.2808
2023-04-18T07:45:00.645Z,14.9670
2023-04-18T07:46:03.091Z,15.1572
2023-04-18T07:47:05.313Z,15.8580
2023-04-18T07:48:07.800Z,16.1652
2023-04-18T07:49:09.984Z,15.2919
2023-04-18T07:50:12.332Z,15.3522
2023-04-18T07:51:14.666Z,16.9095
2023-04-18T07:52:17.077Z,19.7107
2023-04-18T07:53:19.430Z,18.4438
2023-04-18T07:54:21.764Z,18.9112
2023-04-18T07:55:24.095Z,17.5763
2023-04-18T07:56:26.442Z,16.7393
2023-04-18T07:57:28.761Z,15.6373
2023-04-18T07:58:31.105Z,15.6761
2023-04-18T07:59:33.441Z,17.5016
2023-04-18T08:00:35.767Z,15.3602
2023-04-18T08:01:38.114Z,17.0165
2023-04-18T08:02:40.571Z,17.1439
2023-04-18T08:03:43.097Z,16.3307
2023-04-18T08:04:45.312Z,15.8311
2023-04-18T08:05:47.467Z,16.6831
2023-04-18T08:06:49.795Z,16.0330
2023-04-18T08:07:52.136Z,14.8356
2023-04-18T08:08:54.476Z,14.8761
2023-04-18T08:09:56.916Z,14.0606
2023-04-18T08:10:59.152Z,14.4722
2023-04-18T08:12:01.492Z,14.9550
2023-04-18T08:13:03.823Z,14.7707
2023-04-18T08:14:06.174Z,15.9632
2023-04-18T08:15:08.542Z,15.1690
2023-04-18T08:16:10.904Z,15.2203
2023-04-18T08:17:13.191Z,14.9969
2023-04-18T08:18:15.527Z,13.9132
2023-04-18T08:19:17.910Z,13.2087
2023-04-18T08:20:20.217Z,14.6583
2023-04-18T08:21:22.549Z,15.4014
2023-04-18T08:22:24.887Z,14.1067
2023-04-18T08:23:27.221Z,14.5983
2023-04-18T08:24:29.572Z,14.8440
2023-04-18T08:25:31.914Z,15.1630
2023-04-18T08:26:34.246Z,13.7786
2023-04-18T08:27:36.591Z,14.9566
2023-04-18T08:28:38.912Z,14.6748
2023-04-18T08:29:41.255Z,15.0568
2023-04-18T08:30:43.595Z,16.4263
2023-04-18T08:31:45.988Z,16.2794
2023-04-18T08:32:48.312Z,15.7501
2023-04-18T08:33:50.617Z,14.9641
2023-04-18T08:34:52.967Z,14.4160
2023-04-18T08:35:55.296Z,15.7931
2023-04-18T08:36:57.662Z,15.4839
2023-04-18T08:37:59.980Z,17.0076
2023-04-18T08:39:02.326Z,16.1772
2023-04-18T08:40:04.665Z,14.5105
2023-04-18T08:41:06.996Z,15.0980
2023-04-18T08:42:09.346Z,14.9747
2023-04-18T08:43:11.690Z,14.7716
2023-04-18T08:44:14.138Z,15.9074
2023-04-18T08:45:16.403Z,15.6354
2023-04-18T08:46:18.727Z,15.8871
2023-04-18T08:47:21.072Z,15.4457
2023-04-18T08:48:23.398Z,15.7075
2023-04-18T08:49:25.747Z,15.5897
2023-04-18T08:50:28.072Z,16.9243
2023-04-18T08:51:30.444Z,16.7537
2023-04-18T08:52:32.754Z,16.3493
2023-04-18T08:53:35.121Z,16.1744
2023-04-18T08:54:37.453Z,16.1492
2023-04-18T08:55:39.778Z,17.0464
2023-04-18T08:56:42.147Z,16.3703
2023-04-18T08:57:44.461Z,16.8002
2023-04-18T08:58:46.813Z,15.3608
2023-04-18T08:59:50.969Z,15.2890
2023-04-18T09:00:51.536Z,15.2186
2023-04-18T09:01:53.851Z,14.5592
2023-04-18T09:02:56.442Z,14.7529
2023-04-18T09:03:58.580Z,14.9479
2023-04-18T09:05:00.882Z,14.5521
2023-04-18T09:06:03.254Z,14.7235
2023-04-18T09:07:05.539Z,13.9332
2023-04-18T09:08:07.886Z,12.6264
2023-04-18T09:09:10.232Z,12.7071
2023-04-18T09:10:12.681Z,12.4531
2023-04-18T09:11:14.923Z,12.8980
2023-04-18T09:12:17.257Z,13.5361
2023-04-18T09:13:19.627Z,13.9696
2023-04-18T09:14:21.940Z,14.5291
2023-04-18T09:15:24.302Z,14.1036
2023-04-18T09:16:26.727Z,14.5180
2023-04-18T09:17:29.013Z,13.7908
2023-04-18T09:18:31.313Z,14.3513
2023-04-18T09:19:33.652Z,13.2444
2023-04-18T09:20:36.067Z,12.8746
2023-04-18T09:21:38.357Z,12.7684
2023-04-18T09:22:40.677Z,12.2369
2023-04-18T09:23:43.016Z,11.5810
2023-04-18T09:24:45.359Z,11.3809
2023-04-18T09:25:47.700Z,10.6413
2023-04-18T09:26:50.057Z,10.3650
2023-04-18T09:27:52.380Z,11.4067
2023-04-18T09:28:54.707Z,11.4623
2023-04-18T09:29:57.993Z,11.9848
2023-04-18T09:30:59.462Z,13.1171
2023-04-18T09:32:01.776Z,13.3881
2023-04-18T09:33:04.130Z,13.5029
2023-04-18T09:34:06.407Z,13.9062
2023-04-18T09:35:08.760Z,13.6453
2023-04-18T09:36:11.092Z,13.7912
2023-04-18T09:37:13.685Z,13.0852
2023-04-18T09:38:15.761Z,12.4948
2023-04-18T09:39:18.115Z,12.0929
2023-04-18T09:40:20.451Z,13.0789
2023-04-18T09:41:22.781Z,13.5125
2023-04-18T09:42:27.401Z,13.1881
2023-04-18T09:43:27.459Z,13.6864
2023-04-18T09:44:29.804Z,13.4015
2023-04-18T09:45:32.133Z,13.0229
2023-04-18T09:46:34.645Z,13.6879
2023-04-18T09:47:36.969Z,14.0522
2023-04-18T09:48:39.152Z,14.1174
2023-04-18T09:49:41.496Z,15.4164
2023-04-18T09:50:43.820Z,14.6157
2023-04-18T09:51:46.256Z,14.3027
2023-04-18T09:52:48.515Z,14.1253
2023-04-18T09:53:50.857Z,14.2199
2023-04-18T09:54:53.182Z,16.2607
2023-04-18T09:55:57.631Z,14.9001
2023-04-18T09:56:57.862Z,15.2896
2023-04-18T09:58:00.201Z,15.1178
2023-04-18T09:59:02.534Z,14.4559
2023-04-18T10:00:04.865Z,14.6104
2023-04-18T10:01:07.208Z,15.3612
2023-04-18T10:02:09.641Z,13.4742
2023-04-18T10:03:12.083Z,13.7276
2023-04-18T10:04:14.596Z,14.1226
2023-04-18T10:05:17.613Z,14.0190
2023-04-18T10:06:18.913Z,14.0679
2023-04-18T10:07:21.240Z,14.1356
2023-04-18T10:08:23.585Z,14.1651
2023-04-18T10:09:25.921Z,14.0904
2023-04-18T10:10:28.264Z,15.5449
2023-04-18T10:11:30.587Z,15.3842
2023-04-18T10:12:32.925Z,16.3514
2023-04-18T10:13:35.268Z,15.4337
2023-04-18T10:14:37.611Z,14.6439
2023-04-18T10:15:41.148Z,16.2274
2023-04-18T10:16:42.351Z,14.2922
2023-04-18T10:17:56.069Z,14.6691
2023-04-18T10:18:46.979Z,15.9137
2023-04-18T10:19:49.302Z,15.7440
2023-04-18T10:20:51.646Z,15.9882
2023-04-18T10:21:53.986Z,15.5198
2023-04-18T10:22:56.323Z,15.3945
2023-04-18T10:23:58.777Z,14.3259
2023-04-18T10:25:01.005Z,12.6358
2023-04-18T10:26:03.347Z,12.8936
2023-04-18T10:27:05.699Z,13.9303
2023-04-18T10:28:08.058Z,14.3062
2023-04-18T10:29:10.409Z,13.7461
2023-04-18T10:30:12.732Z,14.0904
2023-04-18T10:31:15.108Z,14.6336
2023-04-18T10:32:17.422Z,15.5014
2023-04-18T10:33:30.297Z,14.6145
2023-04-18T10:34:22.330Z,14.2112
2023-04-18T10:35:24.473Z,13.8218
2023-04-18T10:36:26.825Z,14.0735
2023-04-18T10:37:29.142Z,12.5208
2023-04-18T10:38:31.483Z,14.6358
2023-04-18T10:39:33.843Z,15.3410
2023-04-18T10:40:36.170Z,15.2915
2023-04-18T10:41:38.559Z,14.7732
2023-04-18T10:42:40.856Z,14.2786
2023-04-18T10:43:43.202Z,14.4566
2023-04-18T10:44:45.549Z,13.8917
2023-04-18T10:45:47.892Z,13.4232
2023-04-18T10:46:50.282Z,13.7395
2023-04-18T10:47:52.671Z,13.6757
2023-04-18T10:48:54.924Z,14.3959
2023-04-18T10:49:57.262Z,13.7624
2023-04-18T10:50:59.599Z,14.4637
2023-04-18T10:52:02.213Z,12.6923
2023-04-18T10:53:04.292Z,11.5723
2023-04-18T10:54:06.638Z,13.5125
2023-04-18T10:55:08.987Z,13.2408
2023-04-18T10:56:11.312Z,13.4892
2023-04-18T10:57:13.667Z,13.9649
2023-04-18T10:58:15.992Z,13.4632
2023-04-18T10:59:18.331Z,13.0983
2023-04-18T11:00:20.742Z,11.8505
2023-04-18T11:01:23.068Z,11.6855
2023-04-18T11:02:25.542Z,12.1312
2023-04-18T11:03:27.765Z,11.5943
2023-04-18T11:04:30.137Z,11.4944
2023-04-18T11:05:32.433Z,10.2419
2023-04-18T11:06:34.746Z,10.0155
2023-04-18T11:07:37.095Z,9.2197
2023-04-18T11:08:39.443Z,9.6774
2023-04-18T11:09:42.599Z,9.1930
2023-04-18T11:10:44.127Z,9.1912
2023-04-18T11:11:46.466Z,9.2757
2023-04-18T11:12:48.830Z,8.3616
2023-04-18T11:13:51.164Z,8.6765
2023-04-18T11:14:53.500Z,9.8711
2023-04-18T11:15:55.844Z,12.1555
2023-04-18T11:16:58.256Z,12.1220
2023-04-18T11:18:00.616Z,13.4463
2023-04-18T11:19:02.873Z,10.8375
2023-04-18T11:20:05.224Z,13.5217
2023-04-18T11:21:07.564Z,14.2233
2023-04-18T11:22:09.913Z,14.7350
2023-04-18T11:23:12.264Z,13.8717
2023-04-18T11:24:14.706Z,12.9258
2023-04-18T11:25:16.981Z,10.9725
2023-04-18T11:26:19.375Z,12.3462
2023-04-18T11:27:21.629Z,11.5029
2023-04-18T11:28:24.012Z,11.8113
2023-04-18T11:29:26.323Z,11.8610
2023-04-18T11:30:28.673Z,10.6740
2023-04-18T11:31:31.028Z,11.3901
2023-04-18T11:32:33.403Z,12.0045
2023-04-18T11:33:35.755Z,12.5242
2023-04-18T11:34:38.051Z,11.9937
2023-04-18T11:35:40.391Z,12.5722
2023-04-18T11:36:42.742Z,12.5286
2023-04-18T11:37:45.132Z,12.7252
2023-04-18T11:38:47.429Z,12.4774
2023-04-18T11:39:49.778Z,12.0572
2023-04-18T11:40:52.110Z,13.8709
2023-04-18T11:41:54.469Z,13.2909
2023-04-18T11:42:56.815Z,14.5545
2023-04-18T11:43:59.160Z,15.0249
2023-04-18T11:45:01.501Z,15.0851
2023-04-18T11:46:03.872Z,14.4366
2023-04-18T11:47:06.179Z,15.1557
2023-04-18T11:48:08.567Z,17.3431
2023-04-18T11:49:10.876Z,16.9131
2023-04-18T11:50:13.239Z,17.2273
2023-04-18T11:51:15.567Z,15.1048
2023-04-18T11:52:17.908Z,15.7137
2023-04-18T11:53:20.290Z,14.5545
2023-04-18T11:54:22.602Z,12.5062
2023-04-18T11:55:24.955Z,12.2670
2023-04-18T11:56:27.291Z,11.1550
2023-04-18T11:57:29.732Z,10.8399
2023-04-18T11:58:32.074Z,11.8083
2023-04-18T11:59:34.433Z,12.0006
2023-04-18T12:00:36.752Z,12.0884
2023-04-18T12:01:39.101Z,11.8162
2023-04-18T12:02:41.657Z,12.6579
2023-04-18T12:03:44.125Z,12.2190
2023-04-18T12:04:46.344Z,12.1590
2023-04-18T12:05:48.759Z,11.0606
2023-04-18T12:06:50.855Z,11.1073
2023-04-18T12:07:53.189Z,9.9614
2023-04-18T12:08:55.541Z,11.4268
2023-04-18T12:09:57.882Z,11.7327
2023-04-18T12:11:00.228Z,10.7992
2023-04-18T12:12:02.587Z,10.2988
2023-04-18T12:13:04.947Z,11.3781
2023-04-18T12:14:07.278Z,12.9473
2023-04-18T12:15:09.620Z,12.1944
2023-04-18T12:16:11.979Z,12.9302
2023-04-18T12:17:14.342Z,12.5172
2023-04-18T12:18:16.665Z,11.7491
2023-04-18T12:19:19.010Z,11.6748
2023-04-18T12:20:21.357Z,11.7598
2023-04-18T12:21:23.710Z,11.1699
2023-04-18T12:22:26.053Z,10.7646
2023-04-18T12:23:28.420Z,10.7981
2023-04-18T12:24:30.752Z,10.3832
2023-04-18T12:25:33.100Z,11.3787
2023-04-18T12:26:35.444Z,9.8989
2023-04-18T12:27:37.790Z,10.6313
2023-04-18T12:28:40.141Z,11.0069
2023-04-18T12:29:42.512Z,10.2458
2023-04-18T12:30:44.842Z,10.6551
2023-04-18T12:31:47.260Z,10.6133
2023-04-18T12:32:49.628Z,9.8894
2023-04-18T12:33:51.889Z,9.9999
2023-04-18T12:34:54.252Z,10.0645
2023-04-18T12:35:56.584Z,9.7933
2023-04-18T12:36:58.947Z,9.3783
2023-04-18T12:38:01.328Z,10.1173
2023-04-18T12:39:03.644Z,10.4967
2023-04-18T12:40:06.000Z,9.4810
2023-04-18T12:41:08.344Z,9.6175
2023-04-18T12:42:10.750Z,9.0518